Time,TemperatureF,DewpointF,PressureIn,WindDirection,WindDirectionDegrees,WindSpeedMPH,WindSpeedGustMPH,Humidity,HourlyPrecipIn,Conditions,Clouds,dailyrainin,SoftwareType,DateUTC
2013-01-22 00:00:00,38.3,26.8,29.90,SSW,209,0.0,0.0,63,0.00,,---,0.00,VWS V14.01,2013-01-22 05:00:00,
2013-01-22 00:01:00,38.2,26.7,29.90,SSW,209,0.0,0.0,63,0.00,,---,0.00,VWS V14.01,2013-01-22 05:01:00,
2013-01-22 00:02:00,38.0,26.9,29.90,SSW,209,0.0,0.0,64,0.00,,---,0.00,VWS V14.01,2013-01-22 05:02:00,
2013-01-22 00:07:00,37.4,26.4,29.90,SSW,209,0.0,0.0,64,0.00,,---,0.00,VWS V14.01,2013-01-22 05:07:00,
2013-01-22 00:12:00,37.0,27.1,29.90,SSW,209,0.0,0.0,67,0.00,,---,0.00,VWS V14.01,2013-01-22 05:12:00,
2013-01-22 00:17:00,36.5,26.2,29.90,SSW,209,0.0,0.0,66,0.00,,---,0.00,VWS V14.01,2013-01-22 05:17:00,
2013-01-22 00:22:00,36.0,25.8,29.90,SSW,209,0.0,0.0,66,0.00,,---,0.00,VWS V14.01,2013-01-22 05:22:00,
2013-01-22 00:27:00,35.5,25.3,29.91,SSW,209,0.0,0.0,66,0.00,,---,0.00,VWS V14.01,2013-01-22 05:27:00,
2013-01-22 00:30:00,35.1,25.6,29.91,SSW,209,0.0,0.0,68,0.00,,---,0.00,VWS V14.01,2013-01-22 05:30:00,
2013-01-22 00:32:00,34.9,25.8,29.90,SSW,209,0.0,0.0,69,0.00,,---,0.00,VWS V14.01,2013-01-22 05:32:00,
2013-01-22 00:37:00,34.5,25.0,29.91,SSW,209,0.0,0.0,68,0.00,,---,0.00,VWS V14.01,2013-01-22 05:37:00,
2013-01-22 00:42:00,34.2,25.1,29.91,SSW,209,0.0,0.0,69,0.00,,---,0.00,VWS V14.01,2013-01-22 05:42:00,
2013-01-22 00:47:00,33.9,25.5,29.90,SSW,209,0.0,0.0,71,0.00,,---,0.00,VWS V14.01,2013-01-22 05:47:00,
2013-01-22 00:52:00,33.6,25.5,29.91,SSW,209,0.0,0.0,72,0.00,,---,0.00,VWS V14.01,2013-01-22 05:52:00,
2013-01-22 00:57:00,33.3,25.3,29.91,SSW,209,0.0,0.0,72,0.00,,---,0.00,VWS V14.01,2013-01-22 05:57:00,
2013-01-22 01:00:00,33.3,24.2,29.91,SSW,209,0.0,0.0,69,0.00,,---,0.00,VWS V14.01,2013-01-22 06:00:00,
2013-01-22 01:02:00,33.3,24.2,29.91,SSW,209,0.0,1.0,69,0.00,,---,0.00,VWS V14.01,2013-01-22 06:02:00,
2013-01-22 01:07:00,33.4,23.6,29.91,WSW,256,0.0,2.0,67,0.00,,---,0.00,VWS V14.01,2013-01-22 06:07:00,
2013-01-22 01:12:00,33.7,22.1,29.91,WSW,256,0.0,2.0,62,0.00,,---,0.00,VWS V14.01,2013-01-22 06:12:00,
2013-01-22 01:17:00,34.3,23.0,29.91,West,279,0.0,2.0,63,0.00,,---,0.00,VWS V14.01,2013-01-22 06:17:00,
2013-01-22 01:22:00,35.0,23.3,29.91,West,279,0.0,2.0,62,0.00,,---,0.00,VWS V14.01,2013-01-22 06:22:00,
2013-01-22 01:27:00,35.5,22.6,29.91,West,279,0.0,2.0,59,0.00,,---,0.00,VWS V14.01,2013-01-22 06:27:00,
2013-01-22 01:30:00,35.8,23.7,29.91,West,279,0.0,2.0,61,0.00,,---,0.00,VWS V14.01,2013-01-22 06:30:00,
2013-01-22 01:32:00,35.8,23.3,29.92,West,279,0.0,0.0,60,0.00,,---,0.00,VWS V14.01,2013-01-22 06:32:00,
2013-01-22 01:37:00,36.0,23.9,29.92,West,279,0.0,1.0,61,0.00,,---,0.00,VWS V14.01,2013-01-22 06:37:00,
2013-01-22 01:42:00,36.2,22.9,29.92,West,279,0.0,1.0,58,0.00,,---,0.00,VWS V14.01,2013-01-22 06:42:00,
2013-01-22 01:47:00,36.4,23.0,29.92,West,279,0.0,1.0,58,0.00,,---,0.00,VWS V14.01,2013-01-22 06:47:00,
2013-01-22 01:52:00,36.4,24.6,29.93,West,279,0.0,1.0,62,0.00,,---,0.00,VWS V14.01,2013-01-22 06:52:00,
2013-01-22 01:57:00,36.2,25.2,29.92,West,279,0.0,1.0,64,0.00,,---,0.00,VWS V14.01,2013-01-22 06:57:00,
2013-01-22 02:00:00,36.1,25.1,29.93,West,279,0.0,1.0,64,0.00,,---,0.00,VWS V14.01,2013-01-22 07:00:00,
2013-01-22 02:02:00,36.0,25.8,29.93,West,279,0.0,0.0,66,0.00,,---,0.00,VWS V14.01,2013-01-22 07:02:00,
2013-01-22 02:07:00,35.6,25.0,29.93,West,279,0.0,0.0,65,0.00,,---,0.00,VWS V14.01,2013-01-22 07:07:00,
2013-01-22 02:12:00,35.2,24.6,29.93,West,279,0.0,0.0,65,0.00,,---,0.00,VWS V14.01,2013-01-22 07:12:00,
2013-01-22 02:17:00,34.8,24.6,29.93,West,279,0.0,0.0,66,0.00,,---,0.00,VWS V14.01,2013-01-22 07:17:00,
2013-01-22 02:22:00,34.3,24.9,29.94,West,279,0.0,0.0,68,0.00,,---,0.00,VWS V14.01,2013-01-22 07:22:00,
2013-01-22 02:27:00,33.9,24.8,29.94,West,279,0.0,0.0,69,0.00,,---,0.00,VWS V14.01,2013-01-22 07:27:00,
2013-01-22 02:30:00,33.5,24.4,29.94,West,279,0.0,1.0,69,0.00,,---,0.00,VWS V14.01,2013-01-22 07:30:00,
2013-01-22 02:32:00,33.4,22.5,29.94,West,279,0.0,0.0,64,0.00,,---,0.00,VWS V14.01,2013-01-22 07:32:00,
2013-01-22 02:37:00,33.3,22.5,29.95,West,279,0.0,1.0,64,0.00,,---,0.00,VWS V14.01,2013-01-22 07:37:00,
2013-01-22 02:42:00,33.3,22.5,29.95,West,279,0.0,1.0,64,0.00,,---,0.00,VWS V14.01,2013-01-22 07:42:00,
2013-01-22 02:47:00,33.4,23.3,29.95,West,279,0.0,1.0,66,0.00,,---,0.00,VWS V14.01,2013-01-22 07:47:00,
2013-01-22 02:52:00,33.4,22.5,29.95,West,279,0.0,1.0,64,0.00,,---,0.00,VWS V14.01,2013-01-22 07:52:00,
2013-01-22 02:57:00,33.5,21.9,29.95,West,279,0.0,1.0,62,0.00,,---,0.00,VWS V14.01,2013-01-22 07:57:00,
2013-01-22 03:00:00,33.6,21.2,29.94,West,279,0.0,1.0,60,0.00,,---,0.00,VWS V14.01,2013-01-22 08:00:00,
2013-01-22 03:02:00,33.6,21.6,29.95,West,279,0.0,0.0,61,0.00,,---,0.00,VWS V14.01,2013-01-22 08:02:00,
2013-01-22 03:07:00,33.7,20.5,29.95,West,279,0.0,1.0,58,0.00,,---,0.00,VWS V14.01,2013-01-22 08:07:00,
2013-01-22 03:12:00,33.9,19.9,29.95,West,279,0.0,1.0,56,0.00,,---,0.00,VWS V14.01,2013-01-22 08:12:00,
2013-01-22 03:17:00,34.2,19.3,29.95,West,279,0.0,1.0,54,0.00,,---,0.00,VWS V14.01,2013-01-22 08:17:00,
2013-01-22 03:22:00,34.4,19.9,29.95,West,279,0.0,1.0,55,0.00,,---,0.00,VWS V14.01,2013-01-22 08:22:00,
2013-01-22 03:27:00,34.6,22.5,29.95,West,279,0.0,1.0,61,0.00,,---,0.00,VWS V14.01,2013-01-22 08:27:00,
2013-01-22 03:30:00,34.6,21.8,29.95,West,279,0.0,1.0,59,0.00,,---,0.00,VWS V14.01,2013-01-22 08:30:00,
2013-01-22 03:32:00,34.5,21.3,29.95,West,279,0.0,0.0,58,0.00,,---,0.00,VWS V14.01,2013-01-22 08:32:00,
2013-01-22 03:37:00,34.4,20.3,29.95,West,279,0.0,1.0,56,0.00,,---,0.00,VWS V14.01,2013-01-22 08:37:00,
2013-01-22 03:42:00,34.3,20.2,29.96,West,279,0.0,1.0,56,0.00,,---,0.00,VWS V14.01,2013-01-22 08:42:00,
2013-01-22 03:47:00,34.2,19.7,29.96,WNW,283,0.0,1.0,55,0.00,,---,0.00,VWS V14.01,2013-01-22 08:47:00,
2013-01-22 03:52:00,34.2,18.9,29.96,WNW,283,0.0,1.0,53,0.00,,---,0.00,VWS V14.01,2013-01-22 08:52:00,
2013-01-22 03:57:00,34.2,20.1,29.96,WNW,283,0.0,1.0,56,0.00,,---,0.00,VWS V14.01,2013-01-22 08:57:00,
2013-01-22 04:00:00,34.1,20.5,29.96,WNW,283,0.0,1.0,57,0.00,,---,0.00,VWS V14.01,2013-01-22 09:00:00,
2013-01-22 04:02:00,34.1,19.6,29.95,WNW,283,0.0,0.0,55,0.00,,---,0.00,VWS V14.01,2013-01-22 09:02:00,
2013-01-22 04:07:00,34.0,20.0,29.96,WNW,283,0.0,1.0,56,0.00,,---,0.00,VWS V14.01,2013-01-22 09:07:00,
2013-01-22 04:12:00,33.9,19.0,29.96,North,11,0.0,1.0,54,0.00,,---,0.00,VWS V14.01,2013-01-22 09:12:00,
2013-01-22 04:17:00,33.9,18.6,29.97,North,11,1.0,1.0,53,0.00,,---,0.00,VWS V14.01,2013-01-22 09:17:00,
2013-01-22 04:22:00,33.9,18.6,29.97,North,11,0.0,2.0,53,0.00,,---,0.00,VWS V14.01,2013-01-22 09:22:00,
2013-01-22 04:27:00,34.0,17.8,29.98,NNE,30,0.0,5.0,51,0.00,,---,0.00,VWS V14.01,2013-01-22 09:27:00,
2013-01-22 04:30:00,34.1,17.9,29.98,North,350,4.0,5.0,51,0.00,,---,0.00,VWS V14.01,2013-01-22 09:30:00,
2013-01-22 04:32:00,34.1,17.4,29.98,NW,304,0.0,4.0,50,0.00,,---,0.00,VWS V14.01,2013-01-22 09:32:00,
2013-01-22 04:37:00,34.2,17.0,29.98,NNW,338,0.0,4.0,49,0.00,,---,0.00,VWS V14.01,2013-01-22 09:37:00,
2013-01-22 04:42:00,34.3,17.6,29.99,NNE,24,0.0,4.0,50,0.00,,---,0.00,VWS V14.01,2013-01-22 09:42:00,
2013-01-22 04:47:00,34.3,17.1,29.99,NNW,344,0.0,4.0,49,0.00,,---,0.00,VWS V14.01,2013-01-22 09:47:00,
2013-01-22 04:52:00,34.3,16.7,29.99,NW,319,1.0,10.0,48,0.00,,---,0.00,VWS V14.01,2013-01-22 09:52:00,
2013-01-22 04:57:00,34.3,16.7,29.99,NNW,344,2.0,10.0,48,0.00,,---,0.00,VWS V14.01,2013-01-22 09:57:00,
2013-01-22 05:00:00,34.2,16.1,29.99,North,5,0.0,10.0,47,0.00,,---,0.00,VWS V14.01,2013-01-22 10:00:00,
2013-01-22 05:02:00,34.2,15.6,30.00,WSW,242,1.0,6.0,46,0.00,,---,0.00,VWS V14.01,2013-01-22 10:02:00,
2013-01-22 05:07:00,34.1,16.0,29.99,NE,37,2.0,6.0,47,0.00,,---,0.00,VWS V14.01,2013-01-22 10:07:00,
2013-01-22 05:12:00,34.0,14.9,30.00,NW,309,0.0,6.0,45,0.00,,---,0.00,VWS V14.01,2013-01-22 10:12:00,
2013-01-22 05:17:00,33.9,14.8,30.00,NNE,28,1.0,11.0,45,0.00,,---,0.00,VWS V14.01,2013-01-22 10:17:00,
2013-01-22 05:22:00,33.9,14.8,30.01,NNE,32,1.0,11.0,45,0.00,,---,0.00,VWS V14.01,2013-01-22 10:22:00,
2013-01-22 05:27:00,33.8,14.2,30.02,NE,53,1.0,11.0,44,0.00,,---,0.00,VWS V14.01,2013-01-22 10:27:00,
2013-01-22 05:30:00,33.7,14.1,30.02,NNE,20,0.0,11.0,44,0.00,,---,0.00,VWS V14.01,2013-01-22 10:30:00,
2013-01-22 05:32:00,33.6,14.0,30.02,NE,51,3.0,9.0,44,0.00,,---,0.00,VWS V14.01,2013-01-22 10:32:00,
2013-01-22 05:37:00,33.6,14.0,30.02,North,11,2.0,9.0,44,0.00,,---,0.00,VWS V14.01,2013-01-22 10:37:00,
2013-01-22 05:42:00,33.5,14.4,30.03,NNE,26,1.0,9.0,45,0.00,,---,0.00,VWS V14.01,2013-01-22 10:42:00,
2013-01-22 05:47:00,33.3,13.2,30.03,WNW,302,1.0,9.0,43,0.00,,---,0.00,VWS V14.01,2013-01-22 10:47:00,
2013-01-22 05:52:00,33.2,13.7,30.03,WNW,302,1.0,9.0,44,0.00,,---,0.00,VWS V14.01,2013-01-22 10:52:00,
2013-01-22 05:57:00,33.1,13.1,30.03,NNW,331,0.0,9.0,43,0.00,,---,0.00,VWS V14.01,2013-01-22 10:57:00,
2013-01-22 06:00:00,33.0,13.0,30.03,NW,321,1.0,9.0,43,0.00,,---,0.00,VWS V14.01,2013-01-22 11:00:00,
2013-01-22 06:02:00,32.9,12.9,30.03,NW,321,0.0,0.0,43,0.00,,---,0.00,VWS V14.01,2013-01-22 11:02:00,
2013-01-22 06:07:00,32.8,13.3,30.04,North,5,2.0,3.0,44,0.00,,---,0.00,VWS V14.01,2013-01-22 11:07:00,
2013-01-22 06:12:00,32.6,12.6,30.04,North,5,0.0,6.0,43,0.00,,---,0.00,VWS V14.01,2013-01-22 11:12:00,
2013-01-22 06:17:00,32.5,13.0,30.04,North,9,0.0,6.0,44,0.00,,---,0.00,VWS V14.01,2013-01-22 11:17:00,
2013-01-22 06:22:00,32.4,13.4,30.04,NE,49,0.0,6.0,45,0.00,,---,0.00,VWS V14.01,2013-01-22 11:22:00,
2013-01-22 06:27:00,32.3,12.8,30.04,NE,40,0.0,6.0,44,0.00,,---,0.00,VWS V14.01,2013-01-22 11:27:00,
2013-01-22 06:30:00,32.1,13.2,30.05,NE,38,1.0,6.0,45,0.00,,---,0.00,VWS V14.01,2013-01-22 11:30:00,
2013-01-22 06:32:00,32.1,12.7,30.05,North,9,0.0,1.0,44,0.00,,---,0.00,VWS V14.01,2013-01-22 11:32:00,
2013-01-22 06:37:00,32.0,12.6,30.05,North,10,1.0,6.0,44,0.00,,---,0.00,VWS V14.01,2013-01-22 11:37:00,
2013-01-22 06:42:00,32.0,12.1,30.05,NNE,24,0.0,6.0,43,0.00,,---,0.00,VWS V14.01,2013-01-22 11:42:00,
2013-01-22 06:47:00,31.9,12.5,30.06,NE,53,0.0,6.0,44,0.00,,---,0.00,VWS V14.01,2013-01-22 11:47:00,
2013-01-22 06:52:00,31.8,11.9,30.06,NNE,18,0.0,6.0,43,0.00,,---,0.00,VWS V14.01,2013-01-22 11:52:00,
2013-01-22 06:57:00,31.7,11.8,30.07,North,9,0.0,6.0,43,0.00,,---,0.00,VWS V14.01,2013-01-22 11:57:00,
2013-01-22 07:00:00,31.7,12.3,30.07,ENE,63,0.0,6.0,44,0.00,,---,0.00,VWS V14.01,2013-01-22 12:00:00,
2013-01-22 07:02:00,31.7,12.3,30.07,NNE,32,0.0,3.0,44,0.00,,---,0.00,VWS V14.01,2013-01-22 12:02:00,
2013-01-22 07:07:00,31.6,12.2,30.07,NNE,31,0.0,5.0,44,0.00,,---,0.00,VWS V14.01,2013-01-22 12:07:00,
2013-01-22 07:12:00,31.5,12.1,30.08,NNE,31,0.0,5.0,44,0.00,,---,0.00,VWS V14.01,2013-01-22 12:12:00,
2013-01-22 07:17:00,31.4,12.5,30.08,NW,324,0.0,5.0,45,0.00,,---,0.00,VWS V14.01,2013-01-22 12:17:00,
2013-01-22 07:22:00,31.2,11.8,30.08,North,5,0.0,5.0,44,0.00,,---,0.00,VWS V14.01,2013-01-22 12:22:00,
2013-01-22 07:27:00,31.1,11.2,30.08,NW,323,0.0,7.0,43,0.00,,---,0.00,VWS V14.01,2013-01-22 12:27:00,
2013-01-22 07:30:00,31.0,11.7,30.08,NW,317,0.0,7.0,44,0.00,,---,0.00,VWS V14.01,2013-01-22 12:30:00,
2013-01-22 07:32:00,31.0,11.1,30.09,NW,317,0.0,0.0,43,0.00,,---,0.00,VWS V14.01,2013-01-22 12:32:00,
2013-01-22 07:37:00,30.8,11.0,30.09,ENE,63,0.0,3.0,43,0.00,,---,0.00,VWS V14.01,2013-01-22 12:37:00,
2013-01-22 07:42:00,30.8,11.5,30.09,NE,41,0.0,3.0,44,0.00,,---,0.00,VWS V14.01,2013-01-22 12:42:00,
2013-01-22 07:47:00,30.7,11.9,30.09,North,11,3.0,4.0,45,0.00,,---,0.00,VWS V14.01,2013-01-22 12:47:00,
2013-01-22 07:52:00,30.6,10.8,30.09,NW,315,1.0,4.0,43,0.00,,---,0.00,VWS V14.01,2013-01-22 12:52:00,
2013-01-22 07:57:00,30.6,10.2,30.09,WNW,296,0.0,5.0,42,0.00,,---,0.00,VWS V14.01,2013-01-22 12:57:00,
2013-01-22 08:00:00,30.6,10.2,30.09,West,265,0.0,5.0,42,0.00,,---,0.00,VWS V14.01,2013-01-22 13:00:00,
2013-01-22 08:02:00,30.6,9.7,30.09,SE,134,1.0,2.0,41,0.00,,---,0.00,VWS V14.01,2013-01-22 13:02:00,
2013-01-22 08:07:00,30.7,9.2,30.09,NNW,331,4.0,4.0,40,0.00,,---,0.00,VWS V14.01,2013-01-22 13:07:00,
2013-01-22 08:12:00,30.7,8.1,30.09,NNE,13,0.0,7.0,38,0.00,,---,0.00,VWS V14.01,2013-01-22 13:12:00,
2013-01-22 08:17:00,30.8,8.2,30.09,SSE,152,1.0,7.0,38,0.00,,---,0.00,VWS V14.01,2013-01-22 13:17:00,
2013-01-22 08:22:00,30.9,7.7,30.10,SSW,213,2.0,7.0,37,0.00,,---,0.00,VWS V14.01,2013-01-22 13:22:00,
2013-01-22 08:27:00,31.0,7.2,30.10,WNW,300,0.0,7.0,36,0.00,,---,0.00,VWS V14.01,2013-01-22 13:27:00,
2013-01-22 08:30:00,31.1,7.3,30.10,NE,52,0.0,9.0,36,0.00,,---,0.00,VWS V14.01,2013-01-22 13:30:00,
2013-01-22 08:32:00,31.1,7.9,30.10,West,275,0.0,4.0,37,0.00,,---,0.00,VWS V14.01,2013-01-22 13:32:00,
2013-01-22 08:37:00,31.2,6.8,30.11,East,94,0.0,5.0,35,0.00,,---,0.00,VWS V14.01,2013-01-22 13:37:00,
2013-01-22 08:42:00,31.4,7.6,30.11,NE,34,4.0,7.0,36,0.00,,---,0.00,VWS V14.01,2013-01-22 13:42:00,
2013-01-22 08:47:00,31.5,7.0,30.11,WNW,290,2.0,7.0,35,0.00,,---,0.00,VWS V14.01,2013-01-22 13:47:00,
2013-01-22 08:52:00,31.7,6.6,30.11,WNW,289,4.0,9.0,34,0.00,,---,0.00,VWS V14.01,2013-01-22 13:52:00,
2013-01-22 08:57:00,31.9,7.4,30.12,WNW,297,1.0,9.0,35,0.00,,---,0.00,VWS V14.01,2013-01-22 13:57:00,
2013-01-22 09:00:00,32.0,7.5,30.12,NNW,337,0.0,9.0,35,0.00,,---,0.00,VWS V14.01,2013-01-22 14:00:00,
2013-01-22 09:02:00,32.0,7.5,30.12,WNW,297,4.0,4.0,35,0.00,,---,0.00,VWS V14.01,2013-01-22 14:02:00,
2013-01-22 09:07:00,32.2,8.3,30.13,NE,49,0.0,4.0,36,0.00,,---,0.00,VWS V14.01,2013-01-22 14:07:00,
2013-01-22 09:12:00,32.4,7.8,30.13,NE,38,0.0,9.0,35,0.00,,---,0.00,VWS V14.01,2013-01-22 14:12:00,
2013-01-22 09:17:00,32.6,8.6,30.13,NE,39,2.0,9.0,36,0.00,,---,0.00,VWS V14.01,2013-01-22 14:17:00,
2013-01-22 09:22:00,32.8,8.8,30.13,NNE,28,1.0,9.0,36,0.00,,---,0.00,VWS V14.01,2013-01-22 14:22:00,
2013-01-22 09:27:00,32.8,8.8,30.14,NNW,333,4.0,9.0,36,0.00,,---,0.00,VWS V14.01,2013-01-22 14:27:00,
2013-01-22 09:30:00,32.9,8.3,30.14,WNW,288,0.0,9.0,35,0.00,,---,0.00,VWS V14.01,2013-01-22 14:30:00,
2013-01-22 09:32:00,32.9,8.3,30.14,NE,53,0.0,3.0,35,0.00,,---,0.00,VWS V14.01,2013-01-22 14:32:00,
2013-01-22 09:37:00,32.9,8.3,30.14,West,281,0.0,4.0,35,0.00,,---,0.00,VWS V14.01,2013-01-22 14:37:00,
2013-01-22 09:42:00,33.0,9.0,30.14,West,264,4.0,6.0,36,0.00,,---,0.00,VWS V14.01,2013-01-22 14:42:00,
2013-01-22 09:47:00,33.2,8.5,30.14,NNW,346,0.0,7.0,35,0.00,,---,0.00,VWS V14.01,2013-01-22 14:47:00,
2013-01-22 09:52:00,33.3,8.0,30.15,WNW,290,4.0,11.0,34,0.00,,---,0.00,VWS V14.01,2013-01-22 14:52:00,
2013-01-22 09:57:00,33.3,8.6,30.15,WNW,282,2.0,11.0,35,0.00,,---,0.00,VWS V14.01,2013-01-22 14:57:00,
2013-01-22 10:00:00,33.3,8.0,30.16,West,272,2.0,11.0,34,0.00,,---,0.00,VWS V14.01,2013-01-22 15:00:00,
2013-01-22 10:02:00,33.4,8.1,30.16,NW,318,0.0,6.0,34,0.00,,---,0.00,VWS V14.01,2013-01-22 15:02:00,
2013-01-22 10:07:00,33.4,7.4,30.16,ENE,78,0.0,7.0,33,0.00,,---,0.00,VWS V14.01,2013-01-22 15:07:00,
2013-01-22 10:12:00,33.5,8.1,30.16,ESE,102,0.0,9.0,34,0.00,,---,0.00,VWS V14.01,2013-01-22 15:12:00,
2013-01-22 10:17:00,33.6,8.2,30.16,West,273,1.0,9.0,34,0.00,,---,0.00,VWS V14.01,2013-01-22 15:17:00,
2013-01-22 10:22:00,33.7,8.3,30.16,NNW,343,1.0,9.0,34,0.00,,---,0.00,VWS V14.01,2013-01-22 15:22:00,
2013-01-22 10:27:00,33.8,9.1,30.16,WNW,301,10.0,10.0,35,0.00,,---,0.00,VWS V14.01,2013-01-22 15:27:00,
2013-01-22 10:30:00,34.0,9.2,30.16,North,9,0.0,10.0,35,0.00,,---,0.00,VWS V14.01,2013-01-22 15:30:00,
2013-01-22 10:32:00,34.1,10.0,30.16,West,281,0.0,5.0,36,0.00,,---,0.00,VWS V14.01,2013-01-22 15:32:00,
2013-01-22 10:37:00,34.3,9.5,30.16,NE,37,3.0,6.0,35,0.00,,---,0.00,VWS V14.01,2013-01-22 15:37:00,
2013-01-22 10:43:00,34.3,8.9,30.16,NNE,17,3.0,6.0,34,0.00,,---,0.00,VWS V14.01,2013-01-22 15:43:00,
2013-01-22 10:48:00,34.5,9.7,30.16,NE,49,0.0,6.0,35,0.00,,---,0.00,VWS V14.01,2013-01-22 15:48:00,
2013-01-22 10:53:00,34.8,9.3,30.16,North,5,3.0,6.0,34,0.00,,---,0.00,VWS V14.01,2013-01-22 15:53:00,
2013-01-22 10:57:00,34.9,9.4,30.16,West,265,1.0,6.0,34,0.00,,---,0.00,VWS V14.01,2013-01-22 15:57:00,
2013-01-22 11:00:00,35.0,9.5,30.16,NW,320,0.0,6.0,34,0.00,,---,0.00,VWS V14.01,2013-01-22 16:00:00,
2013-01-22 11:02:00,35.0,9.5,30.16,North,5,2.0,5.0,34,0.00,,---,0.00,VWS V14.01,2013-01-22 16:02:00,
2013-01-22 11:07:00,35.0,8.8,30.16,North,349,6.0,10.0,33,0.00,,---,0.00,VWS V14.01,2013-01-22 16:07:00,
2013-01-22 11:12:00,35.0,8.8,30.16,NNE,26,2.0,10.0,33,0.00,,---,0.00,VWS V14.01,2013-01-22 16:12:00,
2013-01-22 11:17:00,35.2,9.0,30.15,NW,308,1.0,10.0,33,0.00,,---,0.00,VWS V14.01,2013-01-22 16:17:00,
2013-01-22 11:22:00,35.4,9.2,30.15,NE,34,0.0,10.0,33,0.00,,---,0.00,VWS V14.01,2013-01-22 16:22:00,
2013-01-22 11:28:00,35.6,8.7,30.16,NNE,22,1.0,10.0,32,0.00,,---,0.00,VWS V14.01,2013-01-22 16:28:00,
2013-01-22 11:30:00,35.6,8.7,30.16,ESE,117,0.0,10.0,32,0.00,,---,0.00,VWS V14.01,2013-01-22 16:30:00,
2013-01-22 11:33:00,35.7,9.4,30.16,WNW,300,10.0,10.0,33,0.00,,---,0.00,VWS V14.01,2013-01-22 16:33:00,
2013-01-22 11:38:00,35.7,8.8,30.16,ENE,58,5.0,12.0,32,0.00,,---,0.00,VWS V14.01,2013-01-22 16:38:00,
2013-01-22 11:43:00,35.8,8.1,30.15,NNE,19,6.0,12.0,31,0.00,,---,0.00,VWS V14.01,2013-01-22 16:43:00,
2013-01-22 11:48:00,35.9,8.2,30.15,NW,321,1.0,12.0,31,0.00,,---,0.00,VWS V14.01,2013-01-22 16:48:00,
2013-01-22 11:53:00,36.2,9.9,30.15,North,5,5.0,12.0,33,0.00,,---,0.00,VWS V14.01,2013-01-22 16:53:00,
2013-01-22 11:58:00,36.4,8.7,30.15,NNE,30,2.0,12.0,31,0.00,,---,0.00,VWS V14.01,2013-01-22 16:58:00,
2013-01-22 12:00:00,36.5,8.0,30.15,NW,319,4.0,12.0,30,0.00,,---,0.00,VWS V14.01,2013-01-22 17:00:00,
2013-01-22 12:03:00,36.5,8.8,30.14,NNE,24,0.0,5.0,31,0.00,,---,0.00,VWS V14.01,2013-01-22 17:03:00,
2013-01-22 12:08:00,36.6,8.1,30.14,NW,306,2.0,5.0,30,0.00,,---,0.00,VWS V14.01,2013-01-22 17:08:00,
2013-01-22 12:13:00,36.8,9.0,30.14,NE,52,0.0,5.0,31,0.00,,---,0.00,VWS V14.01,2013-01-22 17:13:00,
2013-01-22 12:18:00,37.1,8.6,30.13,South,173,4.0,10.0,30,0.00,,---,0.00,VWS V14.01,2013-01-22 17:18:00,
2013-01-22 12:23:00,37.1,7.0,30.13,NW,321,4.0,10.0,28,0.00,,---,0.00,VWS V14.01,2013-01-22 17:23:00,
2013-01-22 12:28:00,37.3,8.0,30.12,NNW,342,0.0,10.0,29,0.00,,---,0.00,VWS V14.01,2013-01-22 17:28:00,
2013-01-22 12:30:00,37.4,7.3,30.12,North,355,1.0,10.0,28,0.00,,---,0.00,VWS V14.01,2013-01-22 17:30:00,
2013-01-22 12:33:00,37.5,7.4,30.12,NNW,329,2.0,4.0,28,0.00,,---,0.00,VWS V14.01,2013-01-22 17:33:00,
2013-01-22 12:38:00,37.6,7.5,30.12,NW,313,4.0,9.0,28,0.00,,---,0.00,VWS V14.01,2013-01-22 17:38:00,
2013-01-22 12:43:00,37.5,6.6,30.12,NW,314,1.0,9.0,27,0.00,,---,0.00,VWS V14.01,2013-01-22 17:43:00,
2013-01-22 12:48:00,37.6,6.7,30.12,WNW,300,4.0,9.0,27,0.00,,---,0.00,VWS V14.01,2013-01-22 17:48:00,
2013-01-22 12:53:00,37.7,6.8,30.11,North,5,2.0,10.0,27,0.00,,---,0.00,VWS V14.01,2013-01-22 17:53:00,
2013-01-22 12:58:00,37.7,4.2,30.11,NNW,344,1.0,10.0,24,0.00,,---,0.00,VWS V14.01,2013-01-22 17:58:00,
2013-01-22 13:00:00,37.7,5.1,30.11,North,355,1.0,10.0,25,0.00,,---,0.00,VWS V14.01,2013-01-22 18:00:00,
2013-01-22 13:03:00,37.7,5.1,30.11,West,263,3.0,4.0,25,0.00,,---,0.00,VWS V14.01,2013-01-22 18:03:00,
2013-01-22 13:08:00,37.7,4.2,30.11,NNW,337,2.0,9.0,24,0.00,,---,0.00,VWS V14.01,2013-01-22 18:08:00,
2013-01-22 13:13:00,37.8,6.0,30.11,WSW,252,5.0,9.0,26,0.00,,---,0.00,VWS V14.01,2013-01-22 18:13:00,
2013-01-22 13:18:00,38.0,6.2,30.11,ENE,63,1.0,9.0,26,0.00,,---,0.00,VWS V14.01,2013-01-22 18:18:00,
2013-01-22 13:23:00,38.2,5.5,30.11,West,267,0.0,9.0,25,0.00,,---,0.00,VWS V14.01,2013-01-22 18:23:00,
2013-01-22 13:28:00,38.3,5.6,30.11,NNW,338,2.0,9.0,25,0.00,,---,0.00,VWS V14.01,2013-01-22 18:28:00,
2013-01-22 13:30:00,38.3,4.7,30.11,NNE,19,2.0,9.0,24,0.00,,---,0.00,VWS V14.01,2013-01-22 18:30:00,
2013-01-22 13:33:00,38.3,5.6,30.11,WNW,299,3.0,6.0,25,0.00,,---,0.00,VWS V14.01,2013-01-22 18:33:00,
2013-01-22 13:38:00,38.4,4.8,30.11,NNW,345,2.0,6.0,24,0.00,,---,0.00,VWS V14.01,2013-01-22 18:38:00,
2013-01-22 13:43:00,38.6,5.8,30.11,SSE,151,1.0,10.0,25,0.00,,---,0.00,VWS V14.01,2013-01-22 18:43:00,
2013-01-22 13:48:00,38.8,5.1,30.11,NE,46,3.0,10.0,24,0.00,,---,0.00,VWS V14.01,2013-01-22 18:48:00,
2013-01-22 13:53:00,38.9,5.2,30.11,SW,214,6.0,10.0,24,0.00,,---,0.00,VWS V14.01,2013-01-22 18:53:00,
2013-01-22 13:58:00,38.8,4.2,30.11,WSW,257,1.0,10.0,23,0.00,,---,0.00,VWS V14.01,2013-01-22 18:58:00,
2013-01-22 14:00:00,38.8,4.2,30.11,WNW,286,3.0,10.0,23,0.00,,---,0.00,VWS V14.01,2013-01-22 19:00:00,
2013-01-22 14:03:00,38.7,4.1,30.11,North,350,1.0,4.0,23,0.00,,---,0.00,VWS V14.01,2013-01-22 19:03:00,
2013-01-22 14:08:00,38.9,6.9,30.11,WNW,297,4.0,7.0,26,0.00,,---,0.00,VWS V14.01,2013-01-22 19:08:00,
2013-01-22 14:13:00,39.1,4.4,30.10,WSW,253,0.0,7.0,23,0.00,,---,0.00,VWS V14.01,2013-01-22 19:13:00,
2013-01-22 14:18:00,39.4,6.5,30.11,NE,51,3.0,9.0,25,0.00,,---,0.00,VWS V14.01,2013-01-22 19:18:00,
2013-01-22 14:23:00,39.6,4.9,30.10,WNW,295,2.0,9.0,23,0.00,,---,0.00,VWS V14.01,2013-01-22 19:23:00,
2013-01-22 14:28:00,39.6,4.9,30.10,West,259,1.0,9.0,23,0.00,,---,0.00,VWS V14.01,2013-01-22 19:28:00,
2013-01-22 14:30:00,39.6,4.9,30.10,ENE,65,1.0,9.0,23,0.00,,---,0.00,VWS V14.01,2013-01-22 19:30:00,
2013-01-22 14:33:00,39.7,5.9,30.10,NNW,347,0.0,3.0,24,0.00,,---,0.00,VWS V14.01,2013-01-22 19:33:00,
2013-01-22 14:38:00,39.7,4.0,30.10,WSW,257,0.0,7.0,22,0.00,,---,0.00,VWS V14.01,2013-01-22 19:38:00,
2013-01-22 14:43:00,39.7,4.9,30.10,North,5,0.0,13.0,23,0.00,,---,0.00,VWS V14.01,2013-01-22 19:43:00,
2013-01-22 14:48:00,39.7,4.9,30.10,WNW,295,0.0,13.0,23,0.00,,---,0.00,VWS V14.01,2013-01-22 19:48:00,
2013-01-22 14:53:00,39.7,4.0,30.11,West,277,2.0,13.0,22,0.00,,---,0.00,VWS V14.01,2013-01-22 19:53:00,
2013-01-22 14:58:00,39.7,4.9,30.10,WNW,298,2.0,13.0,23,0.00,,---,0.00,VWS V14.01,2013-01-22 19:58:00,
2013-01-22 15:00:00,39.6,3.9,30.10,WNW,284,2.0,13.0,22,0.00,,---,0.00,VWS V14.01,2013-01-22 20:00:00,
2013-01-22 15:03:00,39.6,5.8,30.10,West,273,1.0,4.0,24,0.00,,---,0.00,VWS V14.01,2013-01-22 20:03:00,
2013-01-22 15:08:00,39.6,4.9,30.10,NNE,33,2.0,6.0,23,0.00,,---,0.00,VWS V14.01,2013-01-22 20:08:00,
2013-01-22 15:13:00,39.6,4.9,30.10,West,275,3.0,6.0,23,0.00,,---,0.00,VWS V14.01,2013-01-22 20:13:00,
2013-01-22 15:18:00,39.5,4.8,30.10,West,265,3.0,11.0,23,0.00,,---,0.00,VWS V14.01,2013-01-22 20:18:00,
2013-01-22 15:23:00,39.5,4.8,30.10,NE,37,0.0,11.0,23,0.00,,---,0.00,VWS V14.01,2013-01-22 20:23:00,
2013-01-22 15:28:00,39.5,5.7,30.10,North,349,2.0,11.0,24,0.00,,---,0.00,VWS V14.01,2013-01-22 20:28:00,
2013-01-22 15:30:00,39.5,5.7,30.11,West,271,0.0,11.0,24,0.00,,---,0.00,VWS V14.01,2013-01-22 20:30:00,
2013-01-22 15:33:00,39.5,4.8,30.11,NNE,17,1.0,11.0,23,0.00,,---,0.00,VWS V14.01,2013-01-22 20:33:00,
2013-01-22 15:38:00,39.5,5.7,30.11,NNW,335,2.0,11.0,24,0.00,,---,0.00,VWS V14.01,2013-01-22 20:38:00,
2013-01-22 15:43:00,39.5,4.8,30.11,SW,217,4.0,11.0,23,0.00,,---,0.00,VWS V14.01,2013-01-22 20:43:00,
2013-01-22 15:48:00,39.4,6.5,30.11,NW,316,0.0,11.0,25,0.00,,---,0.00,VWS V14.01,2013-01-22 20:48:00,
2013-01-22 15:53:00,39.4,5.6,30.12,WSW,254,3.0,11.0,24,0.00,,---,0.00,VWS V14.01,2013-01-22 20:53:00,
2013-01-22 15:58:00,39.4,5.6,30.12,NNW,348,3.0,11.0,24,0.00,,---,0.00,VWS V14.01,2013-01-22 20:58:00,
2013-01-22 16:00:00,39.3,4.6,30.11,NW,310,1.0,11.0,23,0.00,,---,0.00,VWS V14.01,2013-01-22 21:00:00,
2013-01-22 16:03:00,39.2,4.5,30.11,West,280,4.0,7.0,23,0.00,,---,0.00,VWS V14.01,2013-01-22 21:03:00,
2013-01-22 16:08:00,39.1,5.4,30.11,WSW,238,4.0,8.0,24,0.00,,---,0.00,VWS V14.01,2013-01-22 21:08:00,
2013-01-22 16:13:00,39.0,5.3,30.11,WSW,257,1.0,10.0,24,0.00,,---,0.00,VWS V14.01,2013-01-22 21:13:00,
2013-01-22 16:18:00,38.9,5.2,30.11,North,5,0.0,10.0,24,0.00,,---,0.00,VWS V14.01,2013-01-22 21:18:00,
2013-01-22 16:23:00,39.0,5.3,30.11,North,360,1.0,10.0,24,0.00,,---,0.00,VWS V14.01,2013-01-22 21:23:00,
2013-01-22 16:28:00,39.0,5.3,30.11,WSW,252,2.0,10.0,24,0.00,,---,0.00,VWS V14.01,2013-01-22 21:28:00,
2013-01-22 16:30:00,38.9,4.3,30.11,WSW,253,3.0,10.0,23,0.00,,---,0.00,VWS V14.01,2013-01-22 21:30:00,
2013-01-22 16:31:00,38.9,4.3,30.11,West,279,5.0,10.0,23,0.00,,---,0.00,VWS V14.01,2013-01-22 21:31:00,
2013-01-22 16:36:00,38.9,5.2,30.11,West,277,0.0,4.0,24,0.00,,---,0.00,VWS V14.01,2013-01-22 21:36:00,
2013-01-22 16:41:00,38.9,5.2,30.11,South,186,0.0,4.0,24,0.00,,---,0.00,VWS V14.01,2013-01-22 21:41:00,
2013-01-22 16:46:00,38.8,6.0,30.12,West,270,4.0,5.0,25,0.00,,---,0.00,VWS V14.01,2013-01-22 21:46:00,
2013-01-22 16:51:00,38.7,5.9,30.13,WNW,303,0.0,6.0,25,0.00,,---,0.00,VWS V14.01,2013-01-22 21:51:00,
2013-01-22 16:56:00,38.6,4.9,30.12,WNW,298,0.0,6.0,24,0.00,,---,0.00,VWS V14.01,2013-01-22 21:56:00,
2013-01-22 17:00:00,38.4,5.7,30.12,WNW,298,1.0,6.0,25,0.00,,---,0.00,VWS V14.01,2013-01-22 22:00:00,
2013-01-22 17:01:00,38.4,5.7,30.12,WSW,253,3.0,4.0,25,0.00,,---,0.00,VWS V14.01,2013-01-22 22:01:00,
2013-01-22 17:06:00,38.3,7.3,30.12,WSW,253,0.0,4.0,27,0.00,,---,0.00,VWS V14.01,2013-01-22 22:06:00,
2013-01-22 17:11:00,38.0,6.2,30.12,WSW,254,0.0,4.0,26,0.00,,---,0.00,VWS V14.01,2013-01-22 22:11:00,
2013-01-22 17:17:00,37.8,6.0,30.12,WNW,288,0.0,4.0,26,0.00,,---,0.00,VWS V14.01,2013-01-22 22:17:00,
2013-01-22 17:22:00,37.7,5.9,30.12,WNW,288,0.0,4.0,26,0.00,,---,0.00,VWS V14.01,2013-01-22 22:22:00,
2013-01-22 17:27:00,37.5,8.1,30.12,WNW,288,0.0,4.0,29,0.00,,---,0.00,VWS V14.01,2013-01-22 22:27:00,
2013-01-22 17:30:00,37.3,8.0,30.12,WNW,288,0.0,4.0,29,0.00,,---,0.00,VWS V14.01,2013-01-22 22:30:00,
2013-01-22 17:32:00,37.3,8.0,30.12,WNW,288,0.0,0.0,29,0.00,,---,0.00,VWS V14.01,2013-01-22 22:32:00,
2013-01-22 17:37:00,37.0,9.9,30.12,WNW,288,0.0,0.0,32,0.00,,---,0.00,VWS V14.01,2013-01-22 22:37:00,
2013-01-22 17:42:00,36.7,9.6,30.12,WNW,288,0.0,0.0,32,0.00,,---,0.00,VWS V14.01,2013-01-22 22:42:00,
2013-01-22 17:47:00,36.2,10.6,30.12,WNW,288,0.0,0.0,34,0.00,,---,0.00,VWS V14.01,2013-01-22 22:47:00,
2013-01-22 17:52:00,35.8,11.5,30.12,WNW,288,0.0,0.0,36,0.00,,---,0.00,VWS V14.01,2013-01-22 22:52:00,
2013-01-22 17:57:00,35.3,12.2,30.13,WNW,288,0.0,0.0,38,0.00,,---,0.00,VWS V14.01,2013-01-22 22:57:00,
2013-01-22 18:00:00,34.8,10.6,30.14,WNW,288,0.0,0.0,36,0.00,,---,0.00,VWS V14.01,2013-01-22 23:00:00,
2013-01-22 18:02:00,34.7,11.1,30.14,WNW,288,0.0,0.0,37,0.00,,---,0.00,VWS V14.01,2013-01-22 23:02:00,
2013-01-22 18:07:00,34.0,11.7,30.14,WNW,288,0.0,0.0,39,0.00,,---,0.00,VWS V14.01,2013-01-22 23:07:00,
2013-01-22 18:12:00,33.6,11.3,30.14,WNW,288,0.0,0.0,39,0.00,,---,0.00,VWS V14.01,2013-01-22 23:12:00,
2013-01-22 18:17:00,33.0,10.8,30.14,WNW,288,0.0,0.0,39,0.00,,---,0.00,VWS V14.01,2013-01-22 23:17:00,
2013-01-22 18:22:00,32.4,11.9,30.15,WNW,288,0.0,0.0,42,0.00,,---,0.00,VWS V14.01,2013-01-22 23:22:00,
2013-01-22 18:27:00,32.0,12.1,30.15,WNW,288,0.0,0.0,43,0.00,,---,0.00,VWS V14.01,2013-01-22 23:27:00,
2013-01-22 18:30:00,31.7,12.3,30.15,WNW,288,0.0,0.0,44,0.00,,---,0.00,VWS V14.01,2013-01-22 23:30:00,
2013-01-22 18:32:00,31.6,12.2,30.15,WNW,288,0.0,0.0,44,0.00,,---,0.00,VWS V14.01,2013-01-22 23:32:00,
2013-01-22 18:37:00,31.1,11.8,30.15,WNW,288,0.0,0.0,44,0.00,,---,0.00,VWS V14.01,2013-01-22 23:37:00,
2013-01-22 18:42:00,30.6,13.7,30.15,WNW,288,0.0,0.0,49,0.00,,---,0.00,VWS V14.01,2013-01-22 23:42:00,
2013-01-22 18:47:00,30.1,13.7,30.15,WNW,288,0.0,0.0,50,0.00,,---,0.00,VWS V14.01,2013-01-22 23:47:00,
2013-01-22 18:52:00,29.7,13.4,30.15,WNW,288,0.0,0.0,50,0.00,,---,0.00,VWS V14.01,2013-01-22 23:52:00,
2013-01-22 18:57:00,29.4,13.1,30.16,WNW,288,0.0,0.0,50,0.00,,---,0.00,VWS V14.01,2013-01-22 23:57:00,
2013-01-22 19:00:00,29.3,13.0,30.15,WNW,288,0.0,0.0,50,0.00,,---,0.00,VWS V14.01,2013-01-23 00:00:00,
2013-01-22 19:02:00,29.2,12.9,30.16,WNW,288,0.0,0.0,50,0.00,,---,0.00,VWS V14.01,2013-01-23 00:02:00,
2013-01-22 19:07:00,28.9,13.1,30.16,WNW,288,0.0,0.0,51,0.00,,---,0.00,VWS V14.01,2013-01-23 00:07:00,
2013-01-22 19:12:00,28.6,13.6,30.16,WNW,288,0.0,0.0,53,0.00,,---,0.00,VWS V14.01,2013-01-23 00:12:00,
2013-01-22 19:17:00,28.4,13.9,30.16,WNW,288,0.0,0.0,54,0.00,,---,0.00,VWS V14.01,2013-01-23 00:17:00,
2013-01-22 19:22:00,28.1,14.0,30.16,WNW,288,0.0,1.0,55,0.00,,---,0.00,VWS V14.01,2013-01-23 00:22:00,
2013-01-22 19:27:00,27.8,14.6,30.16,WNW,288,0.0,1.0,57,0.00,,---,0.00,VWS V14.01,2013-01-23 00:27:00,
2013-01-22 19:30:00,27.6,14.8,30.16,WNW,288,0.0,1.0,58,0.00,,---,0.00,VWS V14.01,2013-01-23 00:30:00,
2013-01-22 19:32:00,27.5,15.1,30.16,WNW,288,0.0,0.0,59,0.00,,---,0.00,VWS V14.01,2013-01-23 00:32:00,
2013-01-22 19:37:00,27.2,14.8,30.16,WNW,288,0.0,0.0,59,0.00,,---,0.00,VWS V14.01,2013-01-23 00:37:00,
2013-01-22 19:42:00,27.1,14.7,30.16,WNW,288,0.0,0.0,59,0.00,,---,0.00,VWS V14.01,2013-01-23 00:42:00,
2013-01-22 19:47:00,27.0,15.0,30.16,WNW,288,0.0,0.0,60,0.00,,---,0.00,VWS V14.01,2013-01-23 00:47:00,
2013-01-22 19:52:00,26.9,14.9,30.17,WNW,288,0.0,0.0,60,0.00,,---,0.00,VWS V14.01,2013-01-23 00:52:00,
2013-01-22 19:57:00,26.7,15.1,30.16,WNW,288,0.0,0.0,61,0.00,,---,0.00,VWS V14.01,2013-01-23 00:57:00,
2013-01-22 20:00:00,26.6,15.4,30.16,WNW,288,0.0,0.0,62,0.00,,---,0.00,VWS V14.01,2013-01-23 01:00:00,
2013-01-22 20:02:00,26.5,15.3,30.16,WNW,288,0.0,0.0,62,0.00,,---,0.00,VWS V14.01,2013-01-23 01:02:00,
2013-01-22 20:07:00,26.4,15.2,30.16,WNW,288,0.0,0.0,62,0.00,,---,0.00,VWS V14.01,2013-01-23 01:07:00,
2013-01-22 20:12:00,26.3,15.4,30.15,WNW,288,0.0,0.0,63,0.00,,---,0.00,VWS V14.01,2013-01-23 01:12:00,
2013-01-22 20:17:00,26.2,15.3,30.17,WNW,288,0.0,0.0,63,0.00,,---,0.00,VWS V14.01,2013-01-23 01:17:00,
2013-01-22 20:22:00,26.1,14.9,30.17,WNW,288,0.0,0.0,62,0.00,,---,0.00,VWS V14.01,2013-01-23 01:22:00,
2013-01-22 20:27:00,26.0,14.8,30.16,WNW,288,0.0,0.0,62,0.00,,---,0.00,VWS V14.01,2013-01-23 01:27:00,
2013-01-22 20:30:00,25.8,15.0,30.17,WNW,288,0.0,0.0,63,0.00,,---,0.00,VWS V14.01,2013-01-23 01:30:00,
2013-01-22 20:32:00,25.8,15.3,30.17,WNW,288,0.0,0.0,64,0.00,,---,0.00,VWS V14.01,2013-01-23 01:32:00,
2013-01-22 20:37:00,25.7,15.6,30.17,WNW,288,0.0,0.0,65,0.00,,---,0.00,VWS V14.01,2013-01-23 01:37:00,
2013-01-22 20:42:00,25.6,15.5,30.17,WNW,288,0.0,0.0,65,0.00,,---,0.00,VWS V14.01,2013-01-23 01:42:00,
2013-01-22 20:47:00,25.5,15.7,30.17,WNW,288,0.0,0.0,66,0.00,,---,0.00,VWS V14.01,2013-01-23 01:47:00,
2013-01-22 20:52:00,25.3,15.6,30.17,WNW,288,0.0,0.0,66,0.00,,---,0.00,VWS V14.01,2013-01-23 01:52:00,
2013-01-22 20:57:00,25.2,15.4,30.17,WNW,288,0.0,0.0,66,0.00,,---,0.00,VWS V14.01,2013-01-23 01:57:00,
2013-01-22 21:00:00,25.1,16.0,30.17,WNW,288,0.0,0.0,68,0.00,,---,0.00,VWS V14.01,2013-01-23 02:00:00,
2013-01-22 21:03:00,25.1,16.0,30.17,WNW,288,0.0,0.0,68,0.00,,---,0.00,VWS V14.01,2013-01-23 02:03:00,
2013-01-22 21:08:00,25.0,15.9,30.17,WNW,288,0.0,0.0,68,0.00,,---,0.00,VWS V14.01,2013-01-23 02:08:00,
2013-01-22 21:13:00,25.0,15.9,30.17,WNW,288,0.0,0.0,68,0.00,,---,0.00,VWS V14.01,2013-01-23 02:13:00,
2013-01-22 21:18:00,24.9,16.2,30.17,WNW,288,0.0,0.0,69,0.00,,---,0.00,VWS V14.01,2013-01-23 02:18:00,
2013-01-22 21:23:00,24.9,16.2,30.18,WNW,288,0.0,0.0,69,0.00,,---,0.00,VWS V14.01,2013-01-23 02:23:00,
2013-01-22 21:28:00,24.9,16.5,30.18,WNW,288,0.0,0.0,70,0.00,,---,0.00,VWS V14.01,2013-01-23 02:28:00,
2013-01-22 21:30:00,25.0,15.9,30.18,WNW,288,0.0,0.0,68,0.00,,---,0.00,VWS V14.01,2013-01-23 02:30:00,
2013-01-22 21:33:00,25.0,16.6,30.18,WNW,288,0.0,0.0,70,0.00,,---,0.00,VWS V14.01,2013-01-23 02:33:00,
2013-01-22 21:38:00,25.1,16.7,30.18,WNW,288,0.0,0.0,70,0.00,,---,0.00,VWS V14.01,2013-01-23 02:38:00,
2013-01-22 21:43:00,25.2,17.1,30.18,WNW,288,0.0,0.0,71,0.00,,---,0.00,VWS V14.01,2013-01-23 02:43:00,
2013-01-22 21:48:00,25.2,16.8,30.19,WNW,288,0.0,0.0,70,0.00,,---,0.00,VWS V14.01,2013-01-23 02:48:00,
2013-01-22 21:53:00,25.2,16.5,30.19,WNW,288,0.0,0.0,69,0.00,,---,0.00,VWS V14.01,2013-01-23 02:53:00,
2013-01-22 21:58:00,25.2,16.1,30.19,WNW,288,0.0,0.0,68,0.00,,---,0.00,VWS V14.01,2013-01-23 02:58:00,
2013-01-22 22:00:00,25.3,16.6,30.19,WNW,288,0.0,0.0,69,0.00,,---,0.00,VWS V14.01,2013-01-23 03:00:00,
2013-01-22 22:03:00,25.2,16.1,30.19,WNW,288,0.0,0.0,68,0.00,,---,0.00,VWS V14.01,2013-01-23 03:03:00,
2013-01-22 22:08:00,25.3,15.9,30.20,WNW,288,0.0,0.0,67,0.00,,---,0.00,VWS V14.01,2013-01-23 03:08:00,
2013-01-22 22:13:00,25.3,15.2,30.20,WNW,288,0.0,0.0,65,0.00,,---,0.00,VWS V14.01,2013-01-23 03:13:00,
2013-01-22 22:18:00,25.4,11.5,30.20,WNW,288,0.0,0.0,55,0.00,,---,0.00,VWS V14.01,2013-01-23 03:18:00,
2013-01-22 22:23:00,25.8,11.9,30.22,WNW,288,0.0,0.0,55,0.00,,---,0.00,VWS V14.01,2013-01-23 03:23:00,
2013-01-22 22:28:00,26.3,13.6,30.22,WNW,288,0.0,0.0,58,0.00,,---,0.00,VWS V14.01,2013-01-23 03:28:00,
2013-01-22 22:30:00,26.4,12.8,30.22,WNW,288,0.0,0.0,56,0.00,,---,0.00,VWS V14.01,2013-01-23 03:30:00,
2013-01-22 22:33:00,26.5,13.3,30.22,WNW,288,0.0,0.0,57,0.00,,---,0.00,VWS V14.01,2013-01-23 03:33:00,
2013-01-22 22:38:00,26.6,10.5,30.22,WNW,288,0.0,0.0,50,0.00,,---,0.00,VWS V14.01,2013-01-23 03:38:00,
2013-01-22 22:43:00,26.7,12.3,30.22,WNW,288,0.0,0.0,54,0.00,,---,0.00,VWS V14.01,2013-01-23 03:43:00,
2013-01-22 22:48:00,26.7,13.5,30.22,WNW,288,0.0,0.0,57,0.00,,---,0.00,VWS V14.01,2013-01-23 03:48:00,
2013-01-22 22:53:00,26.7,13.1,30.22,WNW,288,0.0,0.0,56,0.00,,---,0.00,VWS V14.01,2013-01-23 03:53:00,
2013-01-22 22:58:00,26.6,14.6,30.22,WNW,288,0.0,0.0,60,0.00,,---,0.00,VWS V14.01,2013-01-23 03:58:00,
2013-01-22 23:00:00,26.6,15.7,30.22,WNW,288,0.0,0.0,63,0.00,,---,0.00,VWS V14.01,2013-01-23 04:00:00,
2013-01-22 23:03:00,26.5,14.9,30.22,WNW,288,0.0,0.0,61,0.00,,---,0.00,VWS V14.01,2013-01-23 04:03:00,
2013-01-22 23:08:00,26.4,13.6,30.22,WNW,288,0.0,0.0,58,0.00,,---,0.00,VWS V14.01,2013-01-23 04:08:00,
2013-01-22 23:13:00,26.3,14.3,30.22,WNW,288,0.0,0.0,60,0.00,,---,0.00,VWS V14.01,2013-01-23 04:13:00,
2013-01-22 23:18:00,26.2,12.7,30.21,WNW,288,0.0,0.0,56,0.00,,---,0.00,VWS V14.01,2013-01-23 04:18:00,
2013-01-22 23:23:00,26.1,13.0,30.21,WNW,288,0.0,0.0,57,0.00,,---,0.00,VWS V14.01,2013-01-23 04:23:00,
2013-01-22 23:28:00,26.0,14.0,30.21,WNW,288,0.0,0.0,60,0.00,,---,0.00,VWS V14.01,2013-01-23 04:28:00,
2013-01-22 23:30:00,26.0,14.8,30.21,WNW,288,0.0,0.0,62,0.00,,---,0.00,VWS V14.01,2013-01-23 04:30:00,
2013-01-22 23:33:00,26.0,15.9,30.22,WNW,288,0.0,0.0,65,0.00,,---,0.00,VWS V14.01,2013-01-23 04:33:00,
2013-01-22 23:38:00,25.8,14.6,30.22,WNW,288,0.0,0.0,62,0.00,,---,0.00,VWS V14.01,2013-01-23 04:38:00,
2013-01-22 23:43:00,25.7,14.9,30.22,WNW,288,0.0,0.0,63,0.00,,---,0.00,VWS V14.01,2013-01-23 04:43:00,
2013-01-22 23:48:00,25.5,14.7,30.22,WNW,288,0.0,0.0,63,0.00,,---,0.00,VWS V14.01,2013-01-23 04:48:00,
2013-01-22 23:53:00,25.3,13.0,30.22,WNW,288,0.0,0.0,59,0.00,,---,0.00,VWS V14.01,2013-01-23 04:53:00,
2013-01-22 23:58:00,25.1,12.8,30.22,WNW,288,0.0,0.0,59,0.00,,---,0.00,VWS V14.01,2013-01-23 04:58:00,